createdAt,value
2022-08-20T00:01:16.955Z,50.84
2022-08-20T00:03:44.718Z,51.33
2022-08-20T00:06:23.333Z,51.33
2022-08-20T00:08:50.928Z,51.58
2022-08-20T00:11:25.226Z,51.60
2022-08-20T00:13:57.955Z,51.97
2022-08-20T00:16:32.860Z,51.62
2022-08-20T00:19:02.243Z,51.79
2022-08-20T00:21:31.440Z,52.30
2022-08-20T00:23:59.773Z,52.22
2022-08-20T00:26:27.342Z,52.19
2022-08-20T00:28:55.252Z,52.51
2022-08-20T00:31:24.209Z,52.42
2022-08-20T00:33:53.622Z,52.74
2022-08-20T00:36:22.219Z,52.64
2022-08-20T00:38:59.501Z,52.64
2022-08-20T00:41:31.041Z,52.43
2022-08-20T00:44:04.405Z,53.14
2022-08-20T00:46:33.778Z,52.93
2022-08-20T00:49:05.946Z,52.87
2022-08-20T00:51:41.728Z,52.99
2022-08-20T00:54:25.149Z,52.52
2022-08-20T00:57:07.896Z,52.56
2022-08-20T00:59:40.392Z,53.21
2022-08-20T01:02:15.179Z,53.46
2022-08-20T01:05:02.936Z,53.25
2022-08-20T01:07:34.988Z,53.18
2022-08-20T01:10:10.882Z,53.48
2022-08-20T01:12:41.281Z,53.53
2022-08-20T01:15:14.032Z,53.22
2022-08-20T01:17:46.696Z,53.26
2022-08-20T01:20:22.619Z,53.92
2022-08-20T01:23:30.012Z,53.39
2022-08-20T01:26:06.083Z,53.97
2022-08-20T01:28:53.296Z,54.00
2022-08-20T01:31:28.237Z,53.81
2022-08-20T01:33:58.587Z,54.11
2022-08-20T01:36:36.199Z,53.78
2022-08-20T01:39:08.096Z,54.16
2022-08-20T01:41:59.095Z,54.18
2022-08-20T01:44:27.239Z,53.92
2022-08-20T01:46:57.690Z,54.24
2022-08-20T01:49:34.943Z,54.68
2022-08-20T01:52:08.177Z,54.21
2022-08-20T01:54:36.281Z,54.37
2022-08-20T01:57:27.583Z,54.81
2022-08-20T01:59:55.665Z,54.53
2022-08-20T02:02:24.437Z,54.24
2022-08-20T02:04:51.485Z,55.38
2022-08-20T02:07:23.977Z,55.99
2022-08-20T02:09:51.191Z,55.24
2022-08-20T02:12:19.501Z,55.02
2022-08-20T02:14:51.618Z,55.67
2022-08-20T02:17:22.840Z,55.71
2022-08-20T02:20:10.465Z,56.04
2022-08-20T02:22:58.577Z,55.94
2022-08-20T02:25:31.337Z,55.42
2022-08-20T02:28:01.576Z,55.81
2022-08-20T02:30:35.783Z,56.33
2022-08-20T02:33:06.265Z,56.51
2022-08-20T02:35:35.077Z,56.03
2022-08-20T02:38:02.981Z,56.02
2022-08-20T02:40:31.675Z,56.69
2022-08-20T02:43:01.069Z,56.89
2022-08-20T02:45:31.570Z,56.11
2022-08-20T02:47:59.476Z,56.00
2022-08-20T02:50:27.484Z,56.20
2022-08-20T02:52:55.270Z,56.10
2022-08-20T02:55:27.610Z,55.90
2022-08-20T02:57:58.819Z,56.06
2022-08-20T03:00:28.861Z,56.07
2022-08-20T03:03:00.343Z,56.27
2022-08-20T03:05:28.412Z,56.81
2022-08-20T03:07:58.940Z,56.55
2022-08-20T03:10:32.323Z,57.06
2022-08-20T03:13:02.176Z,56.50
2022-08-20T03:15:32.700Z,56.74
2022-08-20T03:18:00.912Z,56.85
2022-08-20T03:20:28.418Z,57.13
2022-08-20T03:22:56.052Z,56.93
2022-08-20T03:25:23.868Z,57.66
2022-08-20T03:27:55.604Z,57.88
2022-08-20T03:30:25.989Z,57.54
2022-08-20T03:32:53.508Z,58.09
2022-08-20T03:35:25.620Z,57.35
2022-08-20T03:37:53.524Z,57.07
2022-08-20T03:40:33.909Z,58.14
2022-08-20T03:43:01.322Z,58.82
2022-08-20T03:45:29.914Z,58.47
2022-08-20T03:47:58.270Z,58.11
2022-08-20T03:50:28.765Z,58.12
2022-08-20T03:52:57.612Z,58.01
2022-08-20T03:55:26.328Z,58.12
2022-08-20T03:58:02.294Z,58.08
2022-08-20T04:00:37.170Z,57.93
2022-08-20T04:03:06.408Z,57.53
2022-08-20T04:05:34.582Z,57.37
2022-08-20T04:08:03.652Z,58.48
2022-08-20T04:10:32.479Z,58.10
2022-08-20T04:13:00.585Z,58.15
2022-08-20T04:15:28.819Z,57.86
2022-08-20T04:17:56.020Z,58.20
2022-08-20T04:20:26.138Z,57.97
2022-08-20T04:22:59.414Z,57.77
2022-08-20T04:25:29.749Z,57.90
2022-08-20T04:27:59.139Z,57.64
2022-08-20T04:30:27.002Z,57.89
2022-08-20T04:32:56.204Z,58.25
2022-08-20T04:35:24.749Z,58.25
2022-08-20T04:38:04.769Z,58.04
2022-08-20T04:40:50.728Z,58.48
2022-08-20T04:43:19.689Z,59.03
2022-08-20T04:45:47.608Z,58.05
2022-08-20T04:48:15.771Z,58.78
2022-08-20T04:50:46.919Z,58.65
2022-08-20T04:53:20.677Z,59.43
2022-08-20T04:55:52.421Z,59.43
2022-08-20T04:58:25.677Z,59.78
2022-08-20T05:01:01.183Z,59.70
2022-08-20T05:03:30.054Z,59.88
2022-08-20T05:05:57.893Z,59.71
2022-08-20T05:08:26.085Z,60.38
2022-08-20T05:10:58.140Z,60.43
2022-08-20T05:13:42.995Z,60.24
2022-08-20T05:16:10.794Z,60.68
2022-08-20T05:18:37.857Z,60.95
2022-08-20T05:21:08.084Z,61.10
2022-08-20T05:23:42.812Z,61.02
2022-08-20T05:26:11.786Z,60.45
2022-08-20T05:28:53.974Z,60.22
2022-08-20T05:31:31.839Z,60.54
2022-08-20T05:34:12.044Z,59.81
2022-08-20T05:36:43.477Z,59.94
2022-08-20T05:39:11.290Z,59.89
2022-08-20T05:41:40.071Z,59.61
2022-08-20T05:44:13.203Z,60.00
2022-08-20T05:46:43.382Z,59.34
2022-08-20T05:49:15.524Z,59.17
2022-08-20T05:51:43.575Z,59.12
2022-08-20T05:54:11.301Z,59.10
2022-08-20T05:56:39.449Z,58.93
2022-08-20T05:59:09.538Z,58.73
2022-08-20T06:01:40.019Z,58.79
2022-08-20T06:04:25.069Z,58.29
2022-08-20T06:07:05.284Z,58.07
2022-08-20T06:09:37.246Z,57.88
2022-08-20T06:12:08.922Z,58.13
2022-08-20T06:14:36.397Z,57.99
2022-08-20T06:17:13.739Z,57.79
2022-08-20T06:19:44.910Z,57.22
2022-08-20T06:22:19.601Z,56.93
2022-08-20T06:24:50.033Z,57.43
2022-08-20T06:27:17.274Z,57.64
2022-08-20T06:29:44.821Z,57.25
2022-08-20T06:32:11.879Z,56.94
2022-08-20T06:34:49.824Z,57.39
2022-08-20T06:37:28.196Z,57.29
2022-08-20T06:40:07.391Z,57.06
2022-08-20T06:42:34.860Z,57.17
2022-08-20T06:45:05.034Z,56.77
2022-08-20T06:47:32.947Z,56.74
2022-08-20T06:50:00.406Z,56.86
2022-08-20T06:52:52.498Z,56.91
2022-08-20T06:55:16.795Z,56.61
2022-08-20T06:57:45.038Z,56.30
2022-08-20T07:00:20.012Z,56.65
2022-08-20T07:02:48.234Z,56.37
2022-08-20T07:05:16.614Z,56.48
2022-08-20T07:07:49.744Z,56.51
2022-08-20T07:10:21.122Z,56.85
2022-08-20T07:12:50.530Z,56.42
2022-08-20T07:15:20.768Z,56.27
2022-08-20T07:18:01.124Z,56.10
2022-08-20T07:20:30.217Z,55.82
2022-08-20T07:22:57.545Z,55.89
2022-08-20T07:25:25.441Z,56.08
2022-08-20T07:27:53.057Z,56.15
2022-08-20T07:30:56.481Z,56.03
2022-08-20T07:33:28.527Z,56.35
2022-08-20T07:35:59.197Z,56.29
2022-08-20T07:38:28.207Z,56.12
2022-08-20T07:41:00.426Z,56.07
2022-08-20T07:43:29.673Z,56.10
2022-08-20T07:46:01.399Z,56.26
2022-08-20T07:48:31.680Z,56.32
2022-08-20T07:51:04.924Z,56.74
2022-08-20T07:53:35.897Z,56.84
2022-08-20T07:56:11.486Z,57.87
2022-08-20T07:58:50.087Z,58.58
2022-08-20T08:01:22.807Z,58.82
2022-08-20T08:03:50.839Z,59.73
2022-08-20T08:06:29.554Z,60.51
2022-08-20T08:09:03.593Z,60.60
2022-08-20T08:11:35.424Z,61.53
2022-08-20T08:14:05.390Z,60.88
2022-08-20T08:16:34.379Z,60.60
2022-08-20T08:19:02.250Z,60.51
2022-08-20T08:21:31.305Z,60.78
2022-08-20T08:23:58.594Z,60.76
2022-08-20T08:26:28.679Z,61.18
2022-08-20T08:28:58.021Z,60.60
2022-08-20T08:31:26.099Z,60.46
2022-08-20T08:33:53.081Z,61.00
2022-08-20T08:36:20.313Z,62.16
2022-08-20T08:38:47.747Z,61.76
2022-08-20T08:41:32.152Z,61.50
2022-08-20T08:44:23.064Z,61.19
2022-08-20T08:46:57.258Z,61.44
2022-08-20T08:49:37.472Z,61.13
2022-08-20T08:52:29.981Z,61.00
2022-08-20T08:55:04.813Z,60.86
2022-08-20T08:57:32.028Z,60.60
2022-08-20T09:00:05.502Z,60.76
2022-08-20T09:02:35.572Z,60.67
2022-08-20T09:05:16.781Z,60.80
2022-08-20T09:07:51.070Z,61.19
2022-08-20T09:10:23.047Z,60.66
2022-08-20T09:12:52.111Z,60.64
2022-08-20T09:15:21.100Z,60.93
2022-08-20T09:17:48.521Z,60.96
2022-08-20T09:20:18.272Z,60.86
2022-08-20T09:22:45.287Z,60.81
2022-08-20T09:25:14.302Z,60.36
2022-08-20T09:27:43.589Z,60.59
2022-08-20T09:30:14.408Z,60.81
2022-08-20T09:32:43.579Z,60.87
2022-08-20T09:35:11.796Z,60.42
2022-08-20T09:37:39.642Z,60.02
2022-08-20T09:40:09.256Z,59.70
2022-08-20T09:42:41.367Z,59.68
2022-08-20T09:45:11.408Z,59.34
2022-08-20T09:47:55.116Z,59.81
2022-08-20T09:50:29.321Z,59.60
2022-08-20T09:53:00.125Z,59.94
2022-08-20T09:55:38.668Z,59.86
2022-08-20T09:58:24.544Z,59.30
2022-08-20T10:00:52.585Z,59.20
2022-08-20T10:03:20.582Z,59.55
2022-08-20T10:05:47.788Z,59.03
2022-08-20T10:08:14.828Z,59.18
2022-08-20T10:10:42.121Z,58.79
2022-08-20T10:13:09.184Z,58.51
2022-08-20T10:15:41.885Z,58.64
2022-08-20T10:18:10.312Z,58.33
2022-08-20T10:20:39.824Z,58.52
2022-08-20T10:23:07.361Z,58.27
2022-08-20T10:25:35.461Z,58.39
2022-08-20T10:28:03.469Z,58.33
2022-08-20T10:30:30.402Z,58.48
2022-08-20T10:32:58.749Z,58.48
2022-08-20T10:35:25.933Z,58.76
2022-08-20T10:37:53.276Z,58.55
2022-08-20T10:40:20.522Z,58.58
2022-08-20T10:42:47.936Z,58.49
2022-08-20T10:45:16.606Z,58.96
2022-08-20T10:47:44.686Z,59.27
2022-08-20T10:50:16.110Z,59.27
2022-08-20T10:52:43.413Z,59.45
2022-08-20T10:55:11.278Z,58.96
2022-08-20T10:57:41.054Z,59.27
2022-08-20T11:00:12.182Z,58.92
2022-08-20T11:02:39.576Z,59.18
2022-08-20T11:05:08.616Z,59.11
2022-08-20T11:07:52.815Z,59.45
2022-08-20T11:10:26.384Z,59.48
2022-08-20T11:12:53.862Z,59.30
2022-08-20T11:15:21.417Z,59.13
2022-08-20T11:17:48.762Z,59.32
2022-08-20T11:20:19.656Z,59.41
2022-08-20T11:22:47.477Z,59.07
2022-08-20T11:25:14.986Z,59.17
2022-08-20T11:27:46.459Z,59.05
2022-08-20T11:30:30.805Z,59.62
2022-08-20T11:33:00.055Z,59.43
2022-08-20T11:35:49.448Z,59.54
2022-08-20T11:38:18.037Z,59.69
2022-08-20T11:40:47.211Z,59.43
2022-08-20T11:43:16.595Z,59.54
2022-08-20T11:45:51.614Z,59.53
2022-08-20T11:48:18.886Z,59.88
2022-08-20T11:50:46.656Z,59.82
2022-08-20T11:53:14.974Z,59.70
2022-08-20T11:55:43.226Z,59.25
2022-08-20T11:58:11.292Z,59.36
2022-08-20T12:00:38.825Z,59.65
2022-08-20T12:03:09.606Z,59.39
2022-08-20T12:05:43.040Z,59.29
2022-08-20T12:08:25.487Z,59.28
2022-08-20T12:11:00.510Z,59.14
2022-08-20T12:13:47.969Z,59.38
2022-08-20T12:16:18.434Z,59.10
2022-08-20T12:18:46.888Z,59.25
2022-08-20T12:21:14.893Z,59.42
2022-08-20T12:23:41.915Z,59.47
2022-08-20T12:26:09.114Z,59.50
2022-08-20T12:28:36.426Z,59.38
2022-08-20T12:31:03.966Z,59.62
2022-08-20T12:33:31.121Z,60.01
2022-08-20T12:35:58.450Z,59.39
2022-08-20T12:38:25.708Z,59.97
2022-08-20T12:40:52.796Z,59.96
2022-08-20T12:43:24.738Z,60.25
2022-08-20T12:45:52.321Z,60.50
2022-08-20T12:48:21.074Z,60.33
2022-08-20T12:50:50.422Z,60.76
2022-08-20T12:53:17.615Z,61.11
2022-08-20T12:55:45.605Z,61.21
2022-08-20T12:58:12.973Z,61.07
2022-08-20T13:00:45.973Z,61.28
2022-08-20T13:03:16.153Z,61.76
2022-08-20T13:05:43.218Z,62.07
2022-08-20T13:08:12.461Z,61.67
2022-08-20T13:10:45.366Z,61.82
2022-08-20T13:13:20.987Z,62.21
2022-08-20T13:15:50.933Z,62.20
2022-08-20T13:18:19.552Z,63.69
2022-08-20T13:20:46.680Z,62.99
2022-08-20T13:23:13.656Z,63.94
2022-08-20T13:25:40.955Z,63.28
2022-08-20T13:28:08.045Z,63.87
2022-08-20T13:30:38.695Z,63.87
2022-08-20T13:33:06.322Z,63.53
2022-08-20T13:35:33.512Z,63.92
2022-08-20T13:38:00.673Z,64.08
2022-08-20T13:40:27.813Z,64.21
2022-08-20T13:42:55.129Z,64.30
2022-08-20T13:45:22.517Z,63.88
2022-08-20T13:47:54.444Z,64.05
2022-08-20T13:50:27.321Z,64.23
2022-08-20T13:52:56.234Z,64.32
2022-08-20T13:55:26.562Z,64.04
2022-08-20T13:57:56.201Z,64.47
2022-08-20T14:00:31.703Z,64.37
2022-08-20T14:03:05.733Z,64.16
2022-08-20T14:05:34.427Z,64.09
2022-08-20T14:08:15.381Z,63.96
2022-08-20T14:10:45.941Z,64.17
2022-08-20T14:13:20.544Z,64.45
2022-08-20T14:15:48.123Z,65.05
2022-08-20T14:18:16.366Z,65.18
2022-08-20T14:20:45.584Z,64.52
2022-08-20T14:23:14.010Z,64.73
2022-08-20T14:25:41.321Z,64.48
2022-08-20T14:28:20.725Z,64.09
2022-08-20T14:30:53.255Z,64.01
2022-08-20T14:33:23.072Z,63.64
2022-08-20T14:35:50.306Z,63.61
2022-08-20T14:38:17.834Z,62.96
2022-08-20T14:40:45.054Z,63.28
2022-08-20T14:43:12.270Z,63.02
2022-08-20T14:45:39.466Z,62.87
2022-08-20T14:48:10.089Z,62.92
2022-08-20T14:50:39.145Z,63.20
2022-08-20T14:53:07.816Z,63.75
2022-08-20T14:55:37.733Z,63.63
2022-08-20T14:58:10.697Z,63.50
2022-08-20T15:00:38.968Z,63.74
2022-08-20T15:03:06.461Z,63.71
2022-08-20T15:05:34.486Z,64.24
2022-08-20T15:08:06.463Z,63.94
2022-08-20T15:10:34.699Z,64.42
2022-08-20T15:13:02.609Z,64.95
2022-08-20T15:15:30.357Z,65.23
2022-08-20T15:18:02.328Z,65.22
2022-08-20T15:20:32.790Z,64.99
2022-08-20T15:23:00.543Z,65.33
2022-08-20T15:25:36.114Z,65.57
2022-08-20T15:28:08.342Z,66.40
2022-08-20T15:30:38.379Z,66.25
2022-08-20T15:33:05.576Z,66.11
2022-08-20T15:35:33.097Z,66.22
2022-08-20T15:38:00.822Z,67.06
2022-08-20T15:40:32.590Z,66.73
2022-08-20T15:43:01.772Z,66.32
2022-08-20T15:45:29.252Z,66.69
2022-08-20T15:48:15.489Z,66.19
2022-08-20T15:50:56.777Z,66.38
2022-08-20T15:53:28.566Z,66.45
2022-08-20T15:56:38.801Z,65.84
2022-08-20T15:59:48.870Z,66.51
2022-08-20T16:02:37.361Z,66.12
2022-08-20T16:05:44.990Z,66.44
2022-08-20T16:08:42.234Z,66.36
2022-08-20T16:11:27.970Z,66.16
2022-08-20T16:14:03.607Z,66.71
2022-08-20T16:16:49.997Z,66.08
2022-08-20T16:19:35.289Z,66.21
2022-08-20T16:22:04.820Z,65.85
2022-08-20T16:24:32.678Z,66.53
2022-08-20T16:27:22.789Z,66.30
2022-08-20T16:30:12.203Z,65.89
2022-08-20T16:32:45.963Z,65.79
2022-08-20T16:35:33.357Z,65.69
2022-08-20T16:38:43.708Z,66.24
2022-08-20T16:41:23.997Z,66.55
2022-08-20T16:44:04.481Z,65.98
2022-08-20T16:46:38.216Z,65.93
2022-08-20T16:49:15.014Z,66.08
2022-08-20T16:51:52.107Z,65.66
2022-08-20T16:54:28.433Z,66.21
2022-08-20T16:57:03.450Z,66.11
2022-08-20T16:59:32.054Z,66.37
2022-08-20T17:02:07.379Z,66.32
2022-08-20T17:04:58.637Z,66.17
2022-08-20T17:07:46.629Z,66.29
2022-08-20T17:10:26.673Z,66.35
2022-08-20T17:13:21.389Z,65.89
2022-08-20T17:16:18.561Z,66.31
2022-08-20T17:18:52.794Z,66.52
2022-08-20T17:21:35.519Z,66.28
2022-08-20T17:24:18.291Z,66.44
2022-08-20T17:27:01.020Z,66.13
2022-08-20T17:29:36.500Z,66.39
2022-08-20T17:32:24.276Z,66.16
2022-08-20T17:34:58.745Z,65.89
2022-08-20T17:37:40.653Z,65.98
2022-08-20T17:40:20.060Z,66.36
2022-08-20T17:43:01.583Z,66.44
2022-08-20T17:45:31.811Z,66.55
2022-08-20T17:48:01.010Z,66.60
2022-08-20T17:50:35.205Z,66.31
2022-08-20T17:53:30.046Z,65.95
2022-08-20T17:56:03.259Z,66.63
2022-08-20T17:58:54.503Z,66.65
2022-08-20T18:01:23.878Z,66.37
2022-08-20T18:03:53.401Z,66.49
2022-08-20T18:06:38.398Z,66.14
2022-08-20T18:09:14.194Z,66.35
2022-08-20T18:11:50.823Z,66.35
2022-08-20T18:14:45.955Z,66.02
2022-08-20T18:17:40.842Z,66.41
2022-08-20T18:20:08.157Z,66.27
2022-08-20T18:22:48.782Z,65.89
2022-08-20T18:25:29.753Z,66.51
2022-08-20T18:28:06.892Z,66.62
2022-08-20T18:30:34.777Z,66.42
2022-08-20T18:33:07.461Z,66.62
2022-08-20T18:35:46.249Z,66.35
2022-08-20T18:38:22.608Z,66.67
2022-08-20T18:40:54.586Z,66.58
2022-08-20T18:43:31.689Z,66.54
2022-08-20T18:46:22.715Z,66.30
2022-08-20T18:48:56.982Z,66.66
2022-08-20T18:51:43.240Z,66.71
2022-08-20T18:54:32.263Z,66.33
2022-08-20T18:57:18.262Z,66.60
2022-08-20T19:00:15.807Z,67.09
2022-08-20T19:02:59.365Z,66.91
2022-08-20T19:05:47.953Z,67.12
2022-08-20T19:08:36.854Z,66.72
2022-08-20T19:11:49.819Z,66.59
2022-08-20T19:14:54.676Z,66.90
2022-08-20T19:17:41.883Z,66.72
2022-08-20T19:20:16.699Z,66.75
2022-08-20T19:22:45.772Z,67.42
2022-08-20T19:25:37.209Z,66.92
2022-08-20T19:28:31.779Z,67.16
2022-08-20T19:31:22.237Z,67.26
2022-08-20T19:34:00.000Z,67.51
2022-08-20T19:36:28.462Z,67.53
2022-08-20T19:39:00.526Z,67.81
2022-08-20T19:41:32.757Z,67.48
2022-08-20T19:44:01.740Z,68.07
2022-08-20T19:46:36.105Z,67.81
2022-08-20T19:49:24.503Z,68.26
2022-08-20T19:52:03.452Z,68.32
2022-08-20T19:54:31.771Z,68.25
2022-08-20T19:57:05.995Z,67.95
2022-08-20T19:59:33.264Z,68.82
2022-08-20T20:02:04.374Z,68.42
2022-08-20T20:04:55.106Z,69.33
2022-08-20T20:07:38.190Z,68.82
2022-08-20T20:10:09.583Z,68.93
2022-08-20T20:12:38.777Z,69.54
2022-08-20T20:15:07.744Z,69.31
2022-08-20T20:17:36.881Z,69.33
2022-08-20T20:20:32.929Z,69.32
2022-08-20T20:23:13.854Z,69.06
2022-08-20T20:25:45.509Z,69.03
2022-08-20T20:28:28.237Z,69.33
2022-08-20T20:31:06.356Z,69.28
2022-08-20T20:33:44.153Z,69.26
2022-08-20T20:36:19.879Z,69.76
2022-08-20T20:39:00.493Z,70.20
2022-08-20T20:41:30.297Z,70.22
2022-08-20T20:44:26.101Z,69.58
2022-08-20T20:46:59.048Z,69.60
2022-08-20T20:49:49.613Z,69.78
2022-08-20T20:52:32.029Z,69.59
2022-08-20T20:55:23.132Z,69.81
2022-08-20T20:57:51.825Z,70.33
2022-08-20T21:00:22.010Z,70.48
2022-08-20T21:02:49.722Z,70.83
2022-08-20T21:05:20.640Z,70.25
2022-08-20T21:08:01.225Z,70.17
2022-08-20T21:10:32.677Z,70.65
2022-08-20T21:13:00.799Z,70.40
2022-08-20T21:15:28.081Z,70.79
2022-08-20T21:18:00.232Z,70.67
2022-08-20T21:20:28.215Z,71.21
2022-08-20T21:22:59.040Z,70.81
2022-08-20T21:25:30.018Z,70.85
2022-08-20T21:27:58.038Z,70.81
2022-08-20T21:30:26.471Z,71.29
2022-08-20T21:32:54.242Z,70.88
2022-08-20T21:35:22.468Z,71.48
2022-08-20T21:37:50.137Z,71.41
2022-08-20T21:40:21.793Z,71.23
2022-08-20T21:42:49.195Z,71.13
2022-08-20T21:45:19.525Z,71.50
2022-08-20T21:47:49.075Z,71.10
2022-08-20T21:50:19.111Z,71.27
2022-08-20T21:52:55.448Z,70.98
2022-08-20T21:55:30.508Z,71.04
2022-08-20T21:57:58.990Z,71.92
2022-08-20T22:00:58.924Z,71.87
2022-08-20T22:03:31.719Z,71.80
2022-08-20T22:06:02.649Z,71.91
2022-08-20T22:08:31.010Z,72.16
2022-08-20T22:10:59.896Z,72.28
2022-08-20T22:13:32.868Z,72.21
2022-08-20T22:16:05.846Z,72.11
2022-08-20T22:18:33.924Z,72.11
2022-08-20T22:21:01.736Z,72.20
2022-08-20T22:23:29.180Z,72.53
2022-08-20T22:25:56.131Z,72.34
2022-08-20T22:28:32.030Z,71.91
2022-08-20T22:30:59.899Z,72.41
2022-08-20T22:33:27.317Z,72.62
2022-08-20T22:35:56.868Z,72.51
2022-08-20T22:38:24.718Z,72.15
2022-08-20T22:40:54.047Z,72.46
2022-08-20T22:43:23.346Z,72.65
2022-08-20T22:45:59.534Z,72.62
2022-08-20T22:48:27.638Z,73.09
2022-08-20T22:50:54.860Z,72.96
2022-08-20T22:53:24.906Z,72.81
2022-08-20T22:55:53.464Z,72.87
2022-08-20T22:58:31.249Z,72.64
2022-08-20T23:01:02.163Z,72.80
2022-08-20T23:03:39.486Z,72.74
2022-08-20T23:06:09.614Z,73.22
2022-08-20T23:08:38.396Z,73.14
2022-08-20T23:11:06.052Z,72.88
2022-08-20T23:13:33.642Z,73.08
2022-08-20T23:16:01.452Z,73.24
2022-08-20T23:18:28.760Z,73.20
2022-08-20T23:20:58.955Z,73.15
2022-08-20T23:23:27.509Z,73.26
2022-08-20T23:25:55.097Z,72.87
2022-08-20T23:28:25.607Z,73.18
2022-08-20T23:30:53.165Z,73.15
2022-08-20T23:33:21.565Z,73.21
2022-08-20T23:35:48.838Z,73.04
2022-08-20T23:38:16.115Z,72.71
2022-08-20T23:40:43.947Z,72.90
2022-08-20T23:43:11.816Z,73.17
2022-08-20T23:45:40.153Z,73.05
2022-08-20T23:48:08.714Z,73.15
2022-08-20T23:50:37.107Z,73.13
2022-08-20T23:53:05.224Z,72.61
2022-08-20T23:55:33.176Z,72.67
2022-08-20T23:58:00.293Z,72.72
